Rinconado, New Mexico
Current Conditions -  °F | °C
As of 9:55 PM on Saturday 25 Oct 2014 (Local Time) from KLAM Reporting Station
Clear Clear  
Wind Chill: 61°   Ceiling: Unl
Heat Index: 61°   Visibility: 10mi
Dew Point: 28°   Wind: 8mph
Humidity: 29%   Direction: 250°WSW
Pressure: 30.3"   Gusts: NA
Location:  36.1441°N, 105.996°W
Report Text: KLAM 260355Z AUTO 25007KT 10SM CLR 16/M02 A3030 RMK AO2 T01601023
Loading
Personal Weather Stations






























Interactive Weather Map
Tropical Storm Tracking
New forecast layout! Learn more

10-Day Weather Forecast

Advertisements
Track Severe Weather on mobile